Terminal Aerodrome Forecast
Issued by NWS

Home | Current Version | Previous Version | Text Only | Print | Product List | Glossary On
Versions: 1 2 3 4 5 6 7 8 9 10 11 12 13 14 15
000
FTAK31 PAJN 282300
TAFAKT
TAF
PAKT 282339Z 2900/2924 15020G30KT P6SM -RA SCT015 OVC025
      WS020/15040KT
      TEMPO 2900/2904 14015KT 3SM -RA BR BKN010 OVC025
     FM290400 15020G30KT P6SM -RA SCT015 OVC025 WS020/15040KT
      TEMPO 2904/2908 14015KT 3SM -RA BR BKN010 OVC025
     FM291300 15010G20KT 3SM -RA BR SCT004 OVC010
     FM291600 16006KT P6SM -RA SCT010 BKN035 OVC050
     FM291800 16006KT P6SM SCT020 BKN040 BKN060
      AMD LTD TO CLD VIS AND WIND 2906/2915=

USA.gov is the U.S. government's official web portal to all federal, state and local government web resources and services.